createdAt,value
2018-09-24T00:01:35.391Z,3.13
2018-09-24T00:04:09.991Z,3.00
2018-09-24T00:06:44.690Z,2.50
2018-09-24T00:09:19.220Z,2.70
2018-09-24T00:11:53.875Z,2.73
2018-09-24T00:14:28.452Z,1.90
2018-09-24T00:17:03.154Z,3.03
2018-09-24T00:19:37.627Z,2.67
2018-09-24T00:22:12.333Z,2.93
2018-09-24T00:24:46.856Z,2.80
2018-09-24T00:27:21.528Z,2.90
2018-09-24T00:29:56.697Z,2.40
2018-09-24T00:32:31.396Z,2.53
2018-09-24T00:35:06.016Z,2.87
2018-09-24T00:37:40.732Z,2.63
2018-09-24T00:40:15.806Z,2.50
2018-09-24T00:42:50.543Z,2.90
2018-09-24T00:45:24.986Z,1.93
2018-09-24T00:47:59.647Z,2.00
2018-09-24T00:50:34.051Z,2.20
2018-09-24T00:53:08.747Z,2.30
2018-09-24T00:55:43.497Z,2.73
2018-09-24T00:58:18.138Z,2.77
2018-09-24T01:00:52.885Z,2.10
2018-09-24T01:03:28.952Z,2.60
2018-09-24T01:06:03.573Z,2.33
2018-09-24T01:08:38.308Z,2.40
2018-09-24T01:11:12.986Z,2.20
2018-09-24T01:13:47.564Z,2.57
2018-09-24T01:16:22.174Z,2.40
2018-09-24T01:18:56.851Z,2.40
2018-09-24T01:21:32.221Z,3.47
2018-09-24T01:24:06.883Z,3.23
2018-09-24T01:26:41.467Z,2.10
2018-09-24T01:29:16.181Z,2.10
2018-09-24T01:31:50.833Z,2.10
2018-09-24T01:34:25.528Z,1.90
2018-09-24T01:37:00.197Z,2.70
2018-09-24T01:39:34.677Z,3.00
2018-09-24T01:42:09.349Z,2.13
2018-09-24T01:44:44.024Z,2.30
2018-09-24T01:47:18.820Z,2.43
2018-09-24T01:49:53.391Z,4.10
2018-09-24T01:52:28.063Z,2.10
2018-09-24T01:55:02.584Z,2.17
2018-09-24T01:57:37.292Z,2.73
2018-09-24T02:00:11.903Z,2.17
2018-09-24T02:02:46.648Z,2.10
2018-09-24T02:05:21.244Z,1.93
2018-09-24T02:07:55.868Z,2.53
2018-09-24T02:10:30.611Z,2.10
2018-09-24T02:13:05.528Z,1.73
2018-09-24T02:15:40.085Z,2.30
2018-09-24T02:18:14.721Z,1.97
2018-09-24T02:20:49.812Z,2.10
2018-09-24T02:23:24.394Z,2.80
2018-09-24T02:25:59.108Z,2.10
2018-09-24T02:28:33.836Z,1.83
2018-09-24T02:31:08.823Z,2.53
2018-09-24T02:33:43.405Z,2.30
2018-09-24T02:36:18.095Z,2.10
2018-09-24T02:38:52.817Z,2.13
2018-09-24T02:41:27.428Z,2.77
2018-09-24T02:44:02.158Z,2.07
2018-09-24T02:46:42.510Z,1.80
2018-09-24T02:49:17.023Z,2.20
2018-09-24T02:51:52.216Z,2.30
2018-09-24T02:54:26.809Z,2.13
2018-09-24T02:57:01.435Z,2.17
2018-09-24T02:59:36.050Z,2.60
2018-09-24T03:02:10.760Z,2.50
2018-09-24T03:04:45.415Z,2.10
2018-09-24T03:07:19.980Z,2.60
2018-09-24T03:09:54.724Z,2.40
2018-09-24T03:12:29.475Z,2.30
2018-09-24T03:15:03.939Z,2.23
2018-09-24T03:17:38.648Z,2.10
2018-09-24T03:20:13.179Z,1.90
2018-09-24T03:22:47.901Z,1.90
2018-09-24T03:25:22.500Z,2.03
2018-09-24T03:27:59.297Z,1.90
2018-09-24T03:30:35.864Z,1.87
2018-09-24T03:33:10.608Z,2.03
2018-09-24T03:35:45.324Z,2.00
2018-09-24T03:38:20.056Z,2.10
2018-09-24T03:40:54.581Z,2.03
2018-09-24T03:43:29.197Z,2.07
2018-09-24T03:46:03.849Z,2.17
2018-09-24T03:48:38.541Z,2.07
2018-09-24T03:51:13.182Z,2.83
2018-09-24T03:53:47.743Z,2.30
2018-09-24T03:56:22.413Z,2.30
2018-09-24T03:58:57.327Z,2.73
2018-09-24T04:01:31.986Z,2.00
2018-09-24T04:04:12.063Z,2.77
2018-09-24T04:06:52.018Z,2.43
2018-09-24T04:09:32.196Z,5.10
2018-09-24T04:12:12.380Z,2.30
2018-09-24T04:14:52.500Z,1.80
2018-09-24T04:17:32.685Z,2.63
2018-09-24T04:20:12.797Z,2.20
2018-09-24T04:22:52.860Z,2.17
2018-09-24T04:25:33.104Z,2.00
2018-09-24T04:28:13.267Z,2.30
2018-09-24T04:30:53.411Z,2.20
2018-09-24T04:33:33.492Z,2.03
2018-09-24T04:36:13.585Z,2.03
2018-09-24T04:38:53.864Z,2.00
2018-09-24T04:41:34.010Z,2.40
2018-09-24T04:44:14.120Z,2.30
2018-09-24T04:46:54.159Z,2.33
2018-09-24T04:49:34.292Z,1.70
2018-09-24T04:52:14.443Z,2.10
2018-09-24T04:54:54.680Z,2.00
2018-09-24T04:57:34.800Z,2.00
2018-09-24T05:00:14.927Z,2.17
2018-09-24T05:02:54.927Z,2.00
2018-09-24T05:05:35.643Z,2.87
2018-09-24T05:08:15.724Z,2.30
2018-09-24T05:10:55.887Z,2.10
2018-09-24T05:13:36.031Z,2.00
2018-09-24T05:16:16.237Z,2.00
2018-09-24T05:18:56.261Z,2.20
2018-09-24T05:21:36.540Z,1.87
2018-09-24T05:24:16.468Z,2.40
2018-09-24T05:26:56.645Z,2.37
2018-09-24T05:29:36.809Z,2.70
2018-09-24T05:32:17.022Z,2.17
2018-09-24T05:34:57.200Z,1.90
2018-09-24T05:37:37.154Z,2.50
2018-09-24T05:40:17.434Z,2.43
2018-09-24T05:42:57.538Z,1.80
2018-09-24T05:45:37.499Z,1.87
2018-09-24T05:48:17.672Z,1.80
2018-09-24T05:50:57.764Z,1.90
2018-09-24T05:53:37.911Z,1.97
2018-09-24T05:56:18.093Z,2.27
2018-09-24T05:58:58.650Z,2.00
2018-09-24T06:01:38.802Z,2.50
2018-09-24T06:04:18.881Z,2.30
2018-09-24T06:06:59.089Z,1.77
2018-09-24T06:09:45.857Z,2.37
2018-09-24T06:12:25.996Z,1.50
2018-09-24T06:15:06.191Z,1.80
2018-09-24T06:17:46.253Z,1.93
2018-09-24T06:20:26.276Z,1.37
2018-09-24T06:23:07.033Z,1.97
2018-09-24T06:25:48.173Z,1.43
2018-09-24T06:28:28.432Z,1.80
2018-09-24T06:31:08.559Z,1.50
2018-09-24T06:33:48.614Z,1.67
2018-09-24T06:36:28.579Z,1.40
2018-09-24T06:39:08.718Z,1.63
2018-09-24T06:41:48.936Z,1.53
2018-09-24T06:44:28.931Z,1.53
2018-09-24T06:47:09.008Z,1.70
2018-09-24T06:49:49.022Z,1.47
2018-09-24T06:52:29.140Z,1.90
2018-09-24T06:55:09.281Z,2.00
2018-09-24T06:57:49.461Z,1.80
2018-09-24T07:00:29.642Z,2.00
2018-09-24T07:03:09.660Z,1.80
2018-09-24T07:05:49.938Z,2.00
2018-09-24T07:08:30.047Z,2.10
2018-09-24T07:11:10.049Z,2.07
2018-09-24T07:13:50.258Z,1.93
2018-09-24T07:16:30.493Z,1.40
2018-09-24T07:19:10.755Z,1.70
2018-09-24T07:21:50.738Z,1.70
2018-09-24T07:24:30.756Z,1.37
2018-09-24T07:27:10.938Z,1.70
2018-09-24T07:29:50.953Z,1.53
2018-09-24T07:32:31.228Z,1.40
2018-09-24T07:35:11.152Z,1.77
2018-09-24T07:37:51.375Z,1.50
2018-09-24T07:40:31.481Z,1.63
2018-09-24T07:43:11.673Z,1.83
2018-09-24T07:45:51.716Z,1.53
2018-09-24T07:48:31.904Z,1.80
2018-09-24T07:51:11.936Z,1.70
2018-09-24T07:53:51.988Z,1.70
2018-09-24T07:56:32.218Z,1.90
2018-09-24T07:59:12.409Z,1.80
2018-09-24T08:01:52.304Z,1.83
2018-09-24T08:04:32.768Z,1.80
2018-09-24T08:07:12.875Z,1.80
2018-09-24T08:09:52.945Z,2.00
2018-09-24T08:12:33.034Z,1.90
2018-09-24T08:15:13.244Z,1.57
2018-09-24T08:17:53.596Z,2.60
2018-09-24T08:20:33.610Z,1.50
2018-09-24T08:23:13.813Z,1.50
2018-09-24T08:25:53.846Z,2.27
2018-09-24T08:28:34.080Z,1.90
2018-09-24T08:31:14.383Z,2.10
2018-09-24T08:33:54.539Z,1.80
2018-09-24T08:36:34.636Z,1.40
2018-09-24T08:39:14.629Z,2.00
2018-09-24T08:41:54.748Z,2.00
2018-09-24T08:44:34.757Z,3.60
2018-09-24T08:47:14.861Z,2.00
2018-09-24T08:49:55.043Z,2.00
2018-09-24T08:52:35.586Z,2.20
2018-09-24T08:55:15.906Z,2.00
2018-09-24T08:57:56.100Z,1.80
2018-09-24T09:00:36.380Z,2.07
2018-09-24T09:03:16.544Z,2.03
2018-09-24T09:05:56.793Z,2.27
2018-09-24T09:08:37.309Z,2.00
2018-09-24T09:11:17.305Z,1.90
2018-09-24T09:13:57.445Z,1.90
2018-09-24T09:16:37.617Z,2.23
2018-09-24T09:19:17.800Z,1.70
2018-09-24T09:21:57.892Z,1.60
2018-09-24T09:24:38.065Z,2.20
2018-09-24T09:27:18.296Z,2.17
2018-09-24T09:29:58.441Z,2.00
2018-09-24T09:32:38.617Z,2.17
2018-09-24T09:35:18.809Z,1.70
2018-09-24T09:37:58.705Z,1.60
2018-09-24T09:40:38.855Z,1.90
2018-09-24T09:43:18.745Z,2.17
2018-09-24T09:45:58.908Z,2.17
2018-09-24T09:48:38.736Z,1.93
2018-09-24T09:51:18.999Z,2.10
2018-09-24T09:53:59.153Z,1.93
2018-09-24T09:56:39.117Z,1.83
2018-09-24T09:59:19.425Z,1.80
2018-09-24T10:01:59.532Z,1.90
2018-09-24T10:04:39.770Z,1.70
2018-09-24T10:07:19.750Z,1.90
2018-09-24T10:09:59.800Z,2.33
2018-09-24T10:12:39.833Z,2.43
2018-09-24T10:15:20.001Z,2.50
2018-09-24T10:18:00.040Z,1.90
2018-09-24T10:20:40.045Z,2.03
2018-09-24T10:23:20.151Z,2.27
2018-09-24T10:26:00.301Z,2.70
2018-09-24T10:28:40.449Z,1.90
2018-09-24T10:31:20.809Z,1.60
2018-09-24T10:34:01.020Z,2.20
2018-09-24T10:36:41.145Z,1.80
2018-09-24T10:39:21.252Z,2.47
2018-09-24T10:42:01.124Z,1.50
2018-09-24T10:44:41.225Z,1.90
2018-09-24T10:47:21.471Z,1.93
2018-09-24T10:50:01.568Z,1.87
2018-09-24T10:52:41.596Z,2.13
2018-09-24T10:55:21.612Z,1.93
2018-09-24T10:58:01.794Z,1.63
2018-09-24T11:00:41.922Z,1.80
2018-09-24T11:03:22.068Z,1.60
2018-09-24T11:05:56.266Z,1.70
2018-09-24T11:08:30.569Z,1.97
2018-09-24T11:11:05.051Z,1.90
2018-09-24T11:13:39.315Z,1.93
2018-09-24T11:16:14.543Z,1.63
2018-09-24T11:18:48.840Z,1.93
2018-09-24T11:21:23.245Z,1.90
2018-09-24T11:23:57.660Z,1.73
2018-09-24T11:29:06.344Z,1.50
2018-09-24T11:31:40.608Z,1.50
2018-09-24T11:34:15.148Z,1.63
2018-09-24T11:36:49.484Z,1.50
2018-09-24T11:39:23.958Z,1.80
2018-09-24T11:41:58.381Z,1.33
2018-09-24T11:44:32.685Z,1.50
2018-09-24T11:47:07.052Z,1.47
2018-09-24T11:49:41.357Z,1.03
2018-09-24T11:52:15.770Z,1.20
2018-09-24T11:54:50.076Z,1.30
2018-09-24T11:57:24.478Z,1.00
2018-09-24T12:00:00.050Z,1.00
2018-09-24T12:02:34.316Z,1.10
2018-09-24T12:05:08.823Z,1.30
2018-09-24T12:07:43.197Z,1.30
2018-09-24T12:10:17.524Z,1.40
2018-09-24T12:13:01.628Z,1.20
2018-09-24T12:15:36.100Z,1.53
2018-09-24T12:18:10.903Z,1.40
2018-09-24T12:20:50.977Z,1.43
2018-09-24T12:23:25.239Z,1.63
2018-09-24T12:25:59.512Z,1.60
2018-09-24T12:28:33.827Z,1.80
2018-09-24T12:31:10.842Z,1.60
2018-09-24T12:33:45.554Z,1.80
2018-09-24T12:36:19.889Z,1.70
2018-09-24T12:38:54.245Z,2.27
2018-09-24T12:41:28.639Z,1.40
2018-09-24T12:44:03.149Z,1.60
2018-09-24T12:46:38.425Z,1.70
2018-09-24T12:49:13.766Z,1.40
2018-09-24T12:51:48.004Z,1.90
2018-09-24T12:54:22.253Z,1.67
2018-09-24T12:56:56.488Z,1.50
2018-09-24T12:59:30.913Z,1.73
2018-09-24T13:02:06.829Z,1.67
2018-09-24T13:04:41.124Z,1.53
2018-09-24T13:07:15.496Z,1.40
2018-09-24T13:09:49.784Z,1.87
2018-09-24T13:12:24.030Z,1.40
2018-09-24T13:14:59.101Z,1.80
2018-09-24T13:17:33.532Z,2.27
2018-09-24T13:20:07.834Z,1.90
2018-09-24T13:22:42.255Z,1.33
2018-09-24T13:25:16.824Z,1.30
2018-09-24T13:27:51.167Z,1.00
2018-09-24T13:30:25.670Z,1.30
2018-09-24T13:33:00.109Z,0.90
2018-09-24T13:35:34.753Z,1.00
2018-09-24T13:38:08.991Z,1.00
2018-09-24T13:40:46.348Z,1.10
2018-09-24T13:43:20.667Z,1.10
2018-09-24T13:45:56.619Z,1.17
2018-09-24T13:48:32.056Z,1.07
2018-09-24T13:51:06.637Z,1.10
2018-09-24T13:53:40.844Z,1.23
2018-09-24T13:56:15.317Z,1.00
2018-09-24T13:58:50.259Z,1.00
2018-09-24T14:01:24.529Z,1.30
2018-09-24T14:03:58.835Z,1.20
2018-09-24T14:06:33.305Z,1.20
2018-09-24T14:09:07.607Z,1.00
2018-09-24T14:11:42.056Z,1.13
2018-09-24T14:14:16.303Z,1.10
2018-09-24T14:16:50.592Z,1.07
2018-09-24T14:19:24.805Z,1.20
2018-09-24T14:21:59.127Z,1.00
2018-09-24T14:24:33.629Z,1.10
2018-09-24T14:27:08.072Z,1.27
2018-09-24T14:29:48.159Z,1.43
2018-09-24T14:32:22.542Z,1.30
2018-09-24T14:34:56.944Z,1.50
2018-09-24T14:37:31.265Z,1.47
2018-09-24T14:40:06.208Z,1.63
2018-09-24T14:42:40.503Z,1.10
2018-09-24T14:45:15.059Z,1.10
2018-09-24T14:47:49.460Z,1.00
2018-09-24T14:50:23.931Z,1.30
2018-09-24T14:52:59.261Z,1.20
2018-09-24T14:55:33.789Z,1.30
2018-09-24T14:58:08.184Z,1.90
2018-09-24T15:00:42.531Z,1.40
2018-09-24T15:03:16.771Z,1.83
2018-09-24T15:05:51.046Z,1.87
2018-09-24T15:08:25.381Z,1.40
2018-09-24T15:10:59.782Z,1.40
2018-09-24T15:13:34.495Z,1.20
2018-09-24T15:16:08.867Z,1.33
2018-09-24T15:18:43.280Z,1.40
2018-09-24T15:21:17.652Z,1.60
2018-09-24T15:23:52.023Z,1.70
2018-09-24T15:26:26.685Z,2.00
2018-09-24T15:29:00.979Z,1.33
2018-09-24T15:31:35.318Z,1.40
2018-09-24T15:34:10.533Z,1.40
2018-09-24T15:36:46.542Z,1.50
2018-09-24T15:39:21.209Z,1.60
2018-09-24T15:41:55.405Z,1.67
2018-09-24T15:44:29.763Z,3.20
2018-09-24T15:47:04.144Z,1.93
2018-09-24T15:49:38.487Z,1.70
2018-09-24T15:52:13.219Z,1.50
2018-09-24T15:54:47.810Z,1.37
2018-09-24T15:57:23.941Z,1.20
2018-09-24T15:59:58.349Z,1.77
2018-09-24T16:02:32.844Z,1.23
2018-09-24T16:05:08.441Z,1.70
2018-09-24T16:07:42.916Z,1.13
2018-09-24T16:10:21.454Z,1.13
2018-09-24T16:13:00.309Z,1.20
2018-09-24T16:15:36.197Z,1.20
2018-09-24T16:18:10.599Z,1.17
2018-09-24T16:20:45.000Z,1.10
2018-09-24T16:23:19.469Z,1.30
2018-09-24T16:25:53.804Z,1.30
2018-09-24T16:28:28.177Z,1.43
2018-09-24T16:31:05.521Z,1.10
2018-09-24T16:33:40.804Z,1.70
2018-09-24T16:36:15.308Z,1.10
2018-09-24T16:38:49.520Z,1.73
2018-09-24T16:41:23.804Z,1.27
2018-09-24T16:43:58.203Z,1.20
2018-09-24T16:46:33.636Z,1.40
2018-09-24T16:49:08.090Z,1.43
2018-09-24T16:51:42.786Z,1.50
2018-09-24T16:54:17.201Z,1.20
2018-09-24T16:56:58.608Z,1.20
2018-09-24T16:59:33.016Z,1.37
2018-09-24T17:02:07.606Z,1.20
2018-09-24T17:04:41.861Z,1.63
2018-09-24T17:07:16.385Z,1.33
2018-09-24T17:09:51.522Z,1.90
2018-09-24T17:12:25.873Z,1.67
2018-09-24T17:15:00.207Z,1.47
2018-09-24T17:17:35.120Z,1.70
2018-09-24T17:20:09.482Z,2.67
2018-09-24T17:22:44.696Z,1.60
2018-09-24T17:25:19.017Z,1.50
2018-09-24T17:27:53.580Z,1.60
2018-09-24T17:30:28.099Z,2.80
2018-09-24T17:33:02.627Z,1.40
2018-09-24T17:35:36.928Z,1.40
2018-09-24T17:38:11.208Z,1.53
2018-09-24T17:40:45.675Z,1.63
2018-09-24T17:43:20.090Z,1.80
2018-09-24T17:46:00.175Z,2.00
2018-09-24T17:48:34.465Z,1.33
2018-09-24T17:51:08.670Z,1.90
2018-09-24T17:53:43.088Z,1.57
2018-09-24T17:56:17.445Z,1.80
2018-09-24T17:58:51.714Z,1.43
2018-09-24T18:01:26.163Z,1.63
2018-09-24T18:04:00.791Z,1.77
2018-09-24T18:06:41.774Z,1.80
2018-09-24T18:09:16.003Z,1.50
2018-09-24T18:11:50.711Z,1.87
2018-09-24T18:14:25.228Z,1.70
2018-09-24T18:16:59.589Z,1.63
2018-09-24T18:19:34.056Z,1.60
2018-09-24T18:22:08.325Z,1.30
2018-09-24T18:24:42.830Z,1.60
2018-09-24T18:27:17.289Z,1.90
2018-09-24T18:29:51.636Z,2.07
2018-09-24T18:32:25.957Z,1.47
2018-09-24T18:35:00.397Z,1.50
2018-09-24T18:37:34.912Z,1.47
2018-09-24T18:40:09.483Z,1.53
2018-09-24T18:42:43.829Z,1.83
2018-09-24T18:45:18.123Z,2.00
2018-09-24T18:47:52.572Z,1.27
2018-09-24T18:50:27.127Z,1.53
2018-09-24T18:53:03.014Z,1.40
2018-09-24T18:55:37.493Z,1.30
2018-09-24T18:58:12.104Z,1.70
2018-09-24T19:00:46.684Z,1.70
2018-09-24T19:03:21.042Z,1.63
2018-09-24T19:06:10.185Z,1.77
2018-09-24T19:08:44.670Z,1.30
2018-09-24T19:11:27.703Z,1.50
2018-09-24T19:13:53.236Z,2.10
2018-09-24T19:16:33.555Z,1.80
2018-09-24T19:19:08.025Z,1.60
2018-09-24T19:21:42.414Z,1.53
2018-09-24T19:24:16.937Z,1.63
2018-09-24T19:26:51.450Z,1.70
2018-09-24T19:29:25.754Z,1.50
2018-09-24T19:32:00.184Z,2.10
2018-09-24T19:34:34.453Z,1.50
2018-09-24T19:37:09.023Z,1.30
2018-09-24T19:39:43.158Z,1.67
2018-09-24T19:42:37.251Z,1.33
2018-09-24T19:45:13.069Z,1.50
2018-09-24T19:47:47.592Z,1.50
2018-09-24T19:50:21.904Z,1.40
2018-09-24T19:52:57.531Z,1.67
2018-09-24T19:55:31.868Z,2.37
2018-09-24T19:58:06.160Z,1.40
2018-09-24T20:00:40.425Z,1.23
2018-09-24T20:03:14.934Z,2.57
2018-09-24T20:05:49.195Z,1.00
2018-09-24T20:08:23.600Z,1.43
2018-09-24T20:10:58.003Z,1.60
2018-09-24T20:13:32.526Z,1.47
2018-09-24T20:16:06.973Z,1.50
2018-09-24T20:18:41.892Z,1.30
2018-09-24T20:21:16.233Z,1.47
2018-09-24T20:23:50.626Z,2.23
2018-09-24T20:26:25.132Z,1.30
2018-09-24T20:28:59.552Z,1.67
2018-09-24T20:31:33.844Z,1.47
2018-09-24T20:34:08.242Z,2.13
2018-09-24T20:36:42.561Z,1.93
2018-09-24T20:39:17.048Z,1.53
2018-09-24T20:41:51.409Z,1.57
2018-09-24T20:44:25.756Z,1.50
2018-09-24T20:46:59.949Z,1.57
2018-09-24T20:49:34.430Z,1.33
2018-09-24T20:52:08.861Z,2.60
2018-09-24T20:54:43.233Z,1.53
2018-09-24T20:57:17.544Z,1.70
2018-09-24T20:59:52.011Z,1.80
2018-09-24T21:02:26.357Z,2.13
2018-09-24T21:05:00.749Z,1.70
2018-09-24T21:07:35.784Z,1.70
2018-09-24T21:10:10.181Z,1.67
2018-09-24T21:12:44.473Z,3.10
2018-09-24T21:15:18.836Z,1.77
2018-09-24T21:17:53.243Z,2.20
2018-09-24T21:20:27.534Z,1.93
2018-09-24T21:23:01.861Z,2.03
2018-09-24T21:25:36.165Z,1.97
2018-09-24T21:28:10.600Z,2.43
2018-09-24T21:30:50.663Z,2.00
2018-09-24T21:33:25.605Z,2.27
2018-09-24T21:35:59.930Z,1.93
2018-09-24T21:38:34.276Z,2.10
2018-09-24T21:41:08.652Z,2.10
2018-09-24T21:43:42.964Z,2.20
2018-09-24T21:46:17.595Z,1.93
2018-09-24T21:48:51.932Z,2.10
2018-09-24T21:51:26.244Z,2.20
2018-09-24T21:54:00.582Z,1.93
2018-09-24T21:56:42.413Z,1.60
2018-09-24T21:59:16.948Z,2.30
2018-09-24T22:01:51.284Z,2.10
2018-09-24T22:04:25.531Z,2.10
2018-09-24T22:07:00.863Z,2.00
2018-09-24T22:09:35.294Z,2.00
2018-09-24T22:12:09.637Z,1.80
2018-09-24T22:14:43.835Z,2.90
2018-09-24T22:17:18.234Z,1.83
2018-09-24T22:19:52.652Z,2.60
2018-09-24T22:22:32.916Z,2.00
2018-09-24T22:25:12.945Z,2.00
2018-09-24T22:27:47.340Z,1.90
2018-09-24T22:30:21.604Z,3.73
2018-09-24T22:32:55.832Z,2.07
2018-09-24T22:35:31.158Z,2.83
2018-09-24T22:38:05.569Z,2.57
2018-09-24T22:40:40.007Z,2.30
2018-09-24T22:43:14.148Z,3.37
2018-09-24T22:45:48.577Z,3.00
2018-09-24T22:48:23.163Z,3.10
2018-09-24T22:50:57.676Z,3.23
2018-09-24T22:53:32.004Z,3.50
2018-09-24T22:56:06.421Z,2.80
2018-09-24T22:58:40.681Z,3.07
2018-09-24T23:01:14.920Z,3.20
2018-09-24T23:03:49.337Z,2.80
2018-09-24T23:06:23.690Z,2.60
2018-09-24T23:08:58.037Z,2.53
2018-09-24T23:11:32.451Z,2.67
2018-09-24T23:14:26.676Z,2.97
2018-09-24T23:17:01.177Z,2.40
2018-09-24T23:19:36.356Z,3.13
2018-09-24T23:22:10.636Z,2.70
2018-09-24T23:24:45.018Z,2.47
2018-09-24T23:27:19.232Z,2.73
2018-09-24T23:29:53.612Z,2.30
2018-09-24T23:32:28.081Z,2.80
2018-09-24T23:35:02.500Z,2.67
2018-09-24T23:37:37.492Z,2.60
2018-09-24T23:40:12.158Z,2.40
2018-09-24T23:42:46.595Z,2.60
2018-09-24T23:45:21.736Z,2.63
2018-09-24T23:47:55.950Z,2.90
2018-09-24T23:50:30.324Z,2.43
2018-09-24T23:53:11.264Z,2.27
2018-09-24T23:55:45.542Z,2.30
2018-09-24T23:58:20.674Z,3.13
